createdAt,value
2022-08-29T00:01:15.427Z,26.68
2022-08-29T00:06:17.274Z,26.71
2022-08-29T00:11:19.141Z,26.73
2022-08-29T00:16:21.108Z,26.63
2022-08-29T00:21:23.127Z,26.70
2022-08-29T00:26:26.630Z,26.69
2022-08-29T00:31:32.278Z,26.67
2022-08-29T00:36:34.542Z,26.69
2022-08-29T00:41:36.610Z,26.69
2022-08-29T00:46:41.650Z,26.65
2022-08-29T00:51:48.768Z,26.65
2022-08-29T00:56:53.570Z,26.65
2022-08-29T01:01:55.983Z,26.67
2022-08-29T01:06:58.219Z,26.69
2022-08-29T01:12:18.285Z,26.62
2022-08-29T01:17:27.380Z,26.70
2022-08-29T01:22:59.144Z,26.53
2022-08-29T01:28:03.961Z,26.68
2022-08-29T01:33:06.957Z,26.63
2022-08-29T01:38:27.866Z,26.62
2022-08-29T01:43:30.089Z,26.62
2022-08-29T01:48:32.062Z,26.63
2022-08-29T01:53:34.095Z,26.57
2022-08-29T01:58:36.033Z,26.58
2022-08-29T02:03:38.392Z,26.58
2022-08-29T02:08:42.135Z,26.55
2022-08-29T02:13:54.529Z,26.53
2022-08-29T02:18:57.003Z,26.52
2022-08-29T02:24:16.045Z,26.60
2022-08-29T02:29:25.120Z,26.53
2022-08-29T02:34:28.863Z,26.59
2022-08-29T02:39:32.348Z,26.54
2022-08-29T02:44:34.372Z,26.53
2022-08-29T02:49:36.236Z,26.50
2022-08-29T02:54:38.217Z,26.51
2022-08-29T02:59:40.067Z,26.46
2022-08-29T03:04:41.994Z,26.49
2022-08-29T03:09:43.723Z,26.50
2022-08-29T03:14:45.584Z,26.51
2022-08-29T03:19:47.453Z,26.47
2022-08-29T03:24:49.237Z,26.53
2022-08-29T03:29:51.001Z,26.48
2022-08-29T03:34:53.548Z,26.50
2022-08-29T03:39:55.530Z,26.60
2022-08-29T03:44:57.459Z,26.66
2022-08-29T03:49:59.434Z,26.77
2022-08-29T03:55:01.621Z,26.65
2022-08-29T04:00:12.594Z,26.69
2022-08-29T04:05:16.399Z,26.72
2022-08-29T04:10:31.209Z,26.58
2022-08-29T04:15:33.780Z,26.58
2022-08-29T04:20:38.825Z,26.53
2022-08-29T04:25:43.405Z,26.56
2022-08-29T04:30:51.691Z,26.54
2022-08-29T04:35:54.665Z,26.48
2022-08-29T04:40:56.656Z,26.51
2022-08-29T04:45:58.580Z,26.51
2022-08-29T04:51:01.610Z,26.50
2022-08-29T04:56:09.746Z,26.42
2022-08-29T05:01:21.605Z,26.49
2022-08-29T05:06:24.454Z,26.47
2022-08-29T05:11:26.354Z,26.44
2022-08-29T05:16:30.351Z,26.45
2022-08-29T05:21:35.894Z,26.43
2022-08-29T05:26:41.648Z,26.46
2022-08-29T05:31:44.555Z,26.41
2022-08-29T05:36:47.952Z,26.44
2022-08-29T05:41:50.459Z,26.41
2022-08-29T05:46:52.270Z,26.38
2022-08-29T05:51:56.258Z,26.39
2022-08-29T05:56:58.388Z,26.46
2022-08-29T06:02:01.361Z,26.38
2022-08-29T06:07:03.706Z,26.40
2022-08-29T06:12:06.677Z,26.35
2022-08-29T06:17:09.373Z,26.39
2022-08-29T06:22:11.575Z,26.40
2022-08-29T06:27:14.621Z,26.41
2022-08-29T06:32:16.591Z,26.48
2022-08-29T06:37:18.599Z,26.64
2022-08-29T06:42:24.445Z,26.68
2022-08-29T06:47:27.598Z,26.68
2022-08-29T06:52:29.458Z,26.70
2022-08-29T06:57:31.438Z,26.75
2022-08-29T07:02:33.464Z,26.72
2022-08-29T07:07:35.422Z,26.71
2022-08-29T07:12:37.963Z,26.70
2022-08-29T07:17:40.657Z,26.71
2022-08-29T07:22:42.749Z,26.70
2022-08-29T07:27:44.505Z,26.73
2022-08-29T07:32:46.610Z,26.71
2022-08-29T07:37:50.818Z,26.62
2022-08-29T07:42:53.066Z,26.53
2022-08-29T07:47:54.890Z,26.54
2022-08-29T07:52:56.672Z,26.54
2022-08-29T07:57:58.337Z,26.20
2022-08-29T08:03:00.628Z,26.31
2022-08-29T08:08:08.735Z,26.45
2022-08-29T08:13:17.883Z,25.74
2022-08-29T08:18:19.649Z,25.66
2022-08-29T08:23:22.111Z,26.10
2022-08-29T08:28:24.309Z,26.03
2022-08-29T08:33:26.584Z,26.32
2022-08-29T08:38:28.465Z,26.39
2022-08-29T08:43:57.788Z,26.46
2022-08-29T08:49:01.771Z,26.61
2022-08-29T08:54:09.552Z,26.60
2022-08-29T08:59:33.087Z,26.56
2022-08-29T09:04:48.534Z,26.62
2022-08-29T09:10:03.508Z,26.66
2022-08-29T09:15:13.860Z,26.34
2022-08-29T09:20:29.488Z,26.18
2022-08-29T09:25:32.014Z,25.53
2022-08-29T09:30:35.083Z,25.61
2022-08-29T09:35:52.639Z,26.35
2022-08-29T09:41:02.379Z,26.44
2022-08-29T09:46:21.186Z,26.48
2022-08-29T09:51:29.962Z,25.99
2022-08-29T09:56:31.960Z,26.32
2022-08-29T10:01:36.543Z,26.26
2022-08-29T10:06:46.099Z,26.08
2022-08-29T10:11:56.464Z,26.25
2022-08-29T10:17:24.871Z,25.93
2022-08-29T10:22:40.474Z,25.67
2022-08-29T10:28:20.784Z,25.31
2022-08-29T10:33:41.882Z,25.87
2022-08-29T10:39:11.122Z,25.35
2022-08-29T10:49:44.845Z,26.02
2022-08-29T10:55:14.257Z,26.16
2022-08-29T11:00:20.056Z,26.38
2022-08-29T11:05:26.083Z,26.41
2022-08-29T11:10:39.883Z,26.52
2022-08-29T11:15:48.361Z,26.54
2022-08-29T11:21:32.262Z,26.48
2022-08-29T11:26:33.896Z,26.60
2022-08-29T11:31:58.849Z,26.49
2022-08-29T11:37:12.635Z,26.51
2022-08-29T11:42:49.747Z,26.56
2022-08-29T11:47:45.828Z,26.62
2022-08-29T11:52:59.761Z,26.54
2022-08-29T11:58:21.482Z,26.62
2022-08-29T12:03:36.168Z,26.63
2022-08-29T12:08:47.055Z,26.60
2022-08-29T12:13:48.932Z,26.62
2022-08-29T12:18:55.972Z,26.54
2022-08-29T12:23:58.162Z,26.65
2022-08-29T12:29:02.029Z,26.18
2022-08-29T12:34:35.468Z,26.43
2022-08-29T12:40:09.502Z,26.53
2022-08-29T12:45:24.821Z,26.60
2022-08-29T12:50:31.359Z,26.62
2022-08-29T12:55:40.342Z,26.64
2022-08-29T13:00:42.238Z,26.61
2022-08-29T13:05:44.881Z,26.75
2022-08-29T13:10:56.087Z,26.69
2022-08-29T13:16:01.807Z,26.74
2022-08-29T13:21:06.618Z,26.69
2022-08-29T13:26:11.287Z,26.78
2022-08-29T13:31:15.820Z,26.75
2022-08-29T13:36:35.939Z,26.74
2022-08-29T13:41:37.920Z,26.78
2022-08-29T13:46:41.043Z,26.42
2022-08-29T13:51:43.030Z,26.33
2022-08-29T13:56:49.472Z,26.67
2022-08-29T14:07:18.193Z,26.77
2022-08-29T14:12:21.438Z,26.51
2022-08-29T14:17:35.299Z,26.30
2022-08-29T14:22:38.044Z,26.35
2022-08-29T14:27:40.450Z,26.39
2022-08-29T14:32:42.670Z,26.35
2022-08-29T14:37:44.658Z,26.15
2022-08-29T14:42:46.547Z,26.28
2022-08-29T14:47:48.578Z,26.09
2022-08-29T14:52:50.930Z,26.14
2022-08-29T14:57:53.207Z,26.41
2022-08-29T15:02:55.510Z,26.11
2022-08-29T15:07:58.551Z,26.19
2022-08-29T15:13:03.735Z,26.42
2022-08-29T15:18:06.063Z,26.24
2022-08-29T15:23:07.947Z,25.96
2022-08-29T15:28:12.060Z,26.23
2022-08-29T15:33:14.643Z,25.92
2022-08-29T15:38:17.014Z,25.99
2022-08-29T15:43:19.344Z,26.26
2022-08-29T15:48:21.320Z,26.30
2022-08-29T15:53:23.684Z,26.34
2022-08-29T15:58:25.786Z,26.25
2022-08-29T16:03:28.127Z,26.27
2022-08-29T16:08:30.073Z,26.44
2022-08-29T16:13:32.481Z,26.31
2022-08-29T16:18:34.358Z,26.26
2022-08-29T16:23:36.169Z,26.26
2022-08-29T16:28:39.378Z,26.28
2022-08-29T16:33:41.461Z,26.45
2022-08-29T16:38:43.942Z,26.61
2022-08-29T16:43:52.181Z,26.74
2022-08-29T16:48:54.201Z,26.81
2022-08-29T16:54:00.428Z,26.75
2022-08-29T16:59:03.315Z,26.70
2022-08-29T17:04:08.542Z,26.68
2022-08-29T17:09:10.295Z,26.77
2022-08-29T17:14:13.493Z,26.74
2022-08-29T17:19:15.771Z,26.74
2022-08-29T17:24:18.452Z,26.74
2022-08-29T17:29:20.475Z,26.77
2022-08-29T17:34:23.685Z,26.79
2022-08-29T17:39:25.527Z,26.62
2022-08-29T17:44:29.270Z,26.33
2022-08-29T17:49:31.381Z,26.00
2022-08-29T17:54:33.258Z,26.15
2022-08-29T17:59:36.436Z,26.04
2022-08-29T18:04:38.365Z,26.47
2022-08-29T18:09:40.222Z,26.58
2022-08-29T18:14:45.198Z,26.62
2022-08-29T18:19:47.115Z,26.44
2022-08-29T18:24:49.113Z,26.63
2022-08-29T18:29:52.086Z,26.74
2022-08-29T18:34:57.568Z,26.73
2022-08-29T18:40:02.372Z,26.76
2022-08-29T18:45:05.536Z,26.80
2022-08-29T18:50:26.782Z,26.77
2022-08-29T18:55:29.216Z,26.74
2022-08-29T19:00:31.822Z,26.76
2022-08-29T19:05:35.393Z,26.77
2022-08-29T19:10:37.669Z,26.60
2022-08-29T19:15:41.353Z,26.57
2022-08-29T19:21:02.308Z,26.66
2022-08-29T19:26:11.589Z,26.68
2022-08-29T19:31:16.370Z,26.63
2022-08-29T19:36:20.383Z,26.72
2022-08-29T19:41:22.634Z,26.77
2022-08-29T19:46:27.062Z,26.66
2022-08-29T19:51:32.821Z,26.73
2022-08-29T19:56:34.760Z,26.61
2022-08-29T20:01:38.340Z,26.61
2022-08-29T20:06:40.403Z,26.65
2022-08-29T20:11:46.201Z,26.70
2022-08-29T20:16:48.828Z,26.73
2022-08-29T20:21:51.471Z,26.70
2022-08-29T20:26:53.537Z,26.64
2022-08-29T20:31:58.732Z,26.73
2022-08-29T20:37:10.102Z,26.74
2022-08-29T20:42:13.690Z,26.68
2022-08-29T20:47:18.665Z,26.70
2022-08-29T20:52:22.293Z,26.74
2022-08-29T20:57:24.123Z,26.71
2022-08-29T21:02:44.887Z,26.70
2022-08-29T21:07:47.297Z,26.71
2022-08-29T21:12:49.119Z,26.77
2022-08-29T21:17:50.992Z,26.74
2022-08-29T21:22:52.928Z,26.77
2022-08-29T21:27:54.924Z,26.75
2022-08-29T21:32:57.527Z,26.79
2022-08-29T21:37:59.394Z,26.75
2022-08-29T21:43:01.768Z,26.76
2022-08-29T21:48:04.019Z,26.77
2022-08-29T21:53:06.044Z,26.78
2022-08-29T21:58:08.813Z,26.84
2022-08-29T22:03:13.310Z,26.81
2022-08-29T22:08:15.475Z,26.85
2022-08-29T22:13:18.808Z,26.85
2022-08-29T22:18:21.037Z,26.84
2022-08-29T22:23:24.685Z,26.87
2022-08-29T22:28:26.904Z,26.79
2022-08-29T22:33:28.996Z,26.82
2022-08-29T22:38:31.684Z,26.83
2022-08-29T22:43:33.632Z,26.80
2022-08-29T22:48:35.381Z,26.79
2022-08-29T22:53:37.376Z,26.79
2022-08-29T22:58:39.920Z,26.87
2022-08-29T23:03:42.072Z,26.80
2022-08-29T23:08:43.930Z,26.81
2022-08-29T23:13:47.112Z,26.82
2022-08-29T23:18:49.049Z,26.83
2022-08-29T23:23:51.914Z,26.84
2022-08-29T23:28:54.041Z,26.85
2022-08-29T23:33:55.794Z,26.84
2022-08-29T23:38:57.670Z,26.82
2022-08-29T23:44:00.307Z,26.84
2022-08-29T23:49:02.456Z,26.90
2022-08-29T23:54:04.303Z,26.84
2022-08-29T23:59:06.105Z,26.83
